Time;durP1;ratioP1;P1;durP2;ratioP2;P2;SDS_P1;SDS_P2;PMS_P1;PMS_P2;Temp;Humidity;BMP_temperature;BMP_pressure;BME280_temperature;BME280_humidity;BME280_pressure;Samples;Min_cycle;Max_cycle;Signal;HPM_P1;HPM_P2
2021/11/19 00:01:48;;;;;;;2.00;1.17;;;;;;;14.08;44.52;101073.84;4991032;28;20117;-63
2021/11/19 00:04:16;;;;;;;1.73;1.03;;;;;;;14.02;44.70;101081.47;4991724;28;20478;-63
2021/11/19 00:06:42;;;;;;;5.73;1.77;;;;;;;14.15;44.45;101074.34;4992667;28;20133;-64
2021/11/19 00:09:10;;;;;;;0.50;0.47;;;;;;;14.28;44.13;101068.06;4991961;28;20133;-62
2021/11/19 00:11:42;;;;;;;3.83;1.57;;;;;;;14.30;43.82;101067.78;4992637;28;20465;-63
2021/11/19 00:14:09;;;;;;;3.17;0.93;;;;;;;14.22;44.02;101052.38;4991720;28;20133;-63
2021/11/19 00:16:40;;;;;;;4.43;2.07;;;;;;;14.41;43.74;101066.56;4972750;28;20517;-64
2021/11/19 00:19:08;;;;;;;6.60;1.10;;;;;;;14.48;43.47;101069.88;4984200;28;20074;-62
2021/11/19 00:21:37;;;;;;;1.10;0.87;;;;;;;14.45;43.50;101065.66;4990790;28;20548;-62
2021/11/19 00:24:05;;;;;;;2.40;1.50;;;;;;;14.24;43.75;101052.94;4991788;28;20070;-63
2021/11/19 00:26:33;;;;;;;1.50;0.73;;;;;;;14.30;43.90;101067.78;4989802;28;20066;-62
2021/11/19 00:29:01;;;;;;;2.33;1.30;;;;;;;14.35;43.51;101048.91;4988258;28;20541;-62
2021/11/19 00:31:28;;;;;;;0.33;0.30;;;;;;;14.35;43.54;101060.13;4984137;28;21997;-62
2021/11/19 00:33:56;;;;;;;1.60;0.80;;;;;;;14.44;43.50;101058.38;4974018;28;20442;-62
2021/11/19 00:36:25;;;;;;;3.37;0.97;;;;;;;14.51;43.35;101065.69;4991606;28;20497;-62
2021/11/19 00:38:56;;;;;;;1.05;1.00;;;;;;;14.37;43.47;101052.25;4989894;28;20078;-63
2021/11/19 00:41:24;;;;;;;0.70;0.60;;;;;;;14.31;43.78;101063.84;4990589;28;20050;-62
2021/11/19 00:43:51;;;;;;;5.47;1.70;;;;;;;14.32;43.72;101060.72;4989851;28;20149;-63
2021/11/19 00:46:18;;;;;;;1.63;0.97;;;;;;;14.31;43.64;101059.06;4987320;28;20042;-61
2021/11/19 00:48:45;;;;;;;2.00;1.10;;;;;;;14.29;43.48;101050.09;4991729;28;20085;-61
2021/11/19 00:51:29;;;;;;;0.20;0.20;;;;;;;14.15;43.90;101041.50;4989159;28;20063;-61
2021/11/19 00:53:58;;;;;;;1.93;0.90;;;;;;;14.31;43.70;101042.19;4991348;28;20070;-60
2021/11/19 00:56:29;;;;;;;2.30;1.13;;;;;;;14.26;43.83;101038.63;4990402;28;20414;-60
2021/11/19 00:58:57;;;;;;;1.17;0.77;;;;;;;14.30;43.71;101046.16;4991151;28;20046;-61
2021/11/19 01:01:28;;;;;;;3.23;1.80;;;;;;;14.39;43.44;101030.34;4990462;28;20498;-61
2021/11/19 01:03:55;;;;;;;2.67;1.23;;;;;;;14.39;43.35;101033.16;4988064;28;20077;-62
2021/11/19 01:06:22;;;;;;;2.70;1.73;;;;;;;14.49;43.26;101042.59;4991231;28;20556;-61
2021/11/19 01:08:49;;;;;;;2.70;1.57;;;;;;;14.26;43.39;101016.97;4991038;28;20120;-61
2021/11/19 01:11:20;;;;;;;2.80;1.10;;;;;;;14.32;43.62;101021.38;4989114;28;20443;-63
2021/11/19 01:13:48;;;;;;;;;;;;;;;14.29;43.73;101026.75;4985691;28;20218;-63
2021/11/19 01:16:27;;;;;;;1.33;0.70;;;;;;;14.26;43.79;101016.13;4990887;28;20385;-60
2021/11/19 01:19:02;;;;;;;3.80;1.40;;;;;;;14.14;44.05;101033.34;4988305;28;20054;-61
2021/11/19 01:21:46;;;;;;;1.57;1.00;;;;;;;14.07;43.89;101021.63;4991810;28;20077;-62
2021/11/19 01:24:14;;;;;;;0.57;0.50;;;;;;;14.19;44.05;101022.94;4990539;28;20105;-60
2021/11/19 01:26:42;;;;;;;2.57;1.60;;;;;;;14.23;43.76;101015.56;4990540;28;20082;-60
2021/11/19 01:29:12;;;;;;;2.17;1.03;;;;;;;14.09;43.79;101000.53;4980668;28;20085;-60
2021/11/19 01:31:44;;;;;;;2.33;1.20;;;;;;;14.31;43.67;101004.84;4988943;28;20050;-62
2021/11/19 01:34:11;;;;;;;3.53;1.40;;;;;;;14.27;43.84;101007.41;4982469;28;20121;-63
2021/11/19 01:36:39;;;;;;;2.90;1.67;;;;;;;14.23;43.87;100995.09;4991797;28;20096;-62
2021/11/19 01:39:09;;;;;;;2.20;1.00;;;;;;;14.29;43.71;100999.53;4989895;28;20117;-61
2021/11/19 01:41:51;;;;;;;2.70;1.33;;;;;;;14.32;43.62;100998.06;4989103;28;20121;-61
2021/11/19 01:44:25;;;;;;;2.80;1.40;;;;;;;14.37;43.60;100989.63;4988697;28;20405;-62
2021/11/19 01:46:54;;;;;;;3.13;0.90;;;;;;;14.32;43.65;100987.66;4990274;28;20050;-60
2021/11/19 01:49:23;;;;;;;3.45;1.45;;;;;;;14.32;43.64;100987.66;4988518;28;20129;-62
2021/11/19 01:51:55;;;;;;;1.53;0.90;;;;;;;14.31;43.48;100993.59;4991105;28;20074;-59
2021/11/19 01:54:37;;;;;;;2.77;0.90;;;;;;;14.03;44.19;100961.56;4973774;28;20054;-60
2021/11/19 01:57:27;;;;;;;2.40;1.03;;;;;;;14.23;43.80;100983.84;4990692;28;20078;-60
2021/11/19 01:59:59;;;;;;;1.40;1.02;;;;;;;14.14;43.86;100979.97;4991138;28;20086;-60
2021/11/19 02:02:34;;;;;;;1.17;0.90;;;;;;;14.09;44.07;100983.69;4991221;28;20081;-60
2021/11/19 02:05:14;;;;;;;2.03;1.20;;;;;;;14.27;43.77;100979.31;4991959;28;20386;-59
2021/11/19 02:07:55;;;;;;;2.08;1.48;;;;;;;14.14;44.02;100985.59;4991109;28;20487;-59
2021/11/19 02:10:45;;;;;;;1.87;1.53;;;;;;;14.10;44.22;100973.28;4973085;28;20491;-59
2021/11/19 02:13:21;;;;;;;0.68;0.65;;;;;;;14.18;44.04;100967.84;4921979;28;20082;-60
2021/11/19 02:16:14;;;;;;;1.83;0.80;;;;;;;14.10;44.18;100978.91;4989758;28;20561;-61
2021/11/19 02:18:46;;;;;;;1.13;0.80;;;;;;;14.15;44.16;100973.22;4975917;28;20089;-60
2021/11/19 02:21:21;;;;;;;1.77;1.13;;;;;;;14.23;43.83;100964.19;4990893;28;20149;-60
2021/11/19 02:24:13;;;;;;;0.70;0.70;;;;;;;14.10;44.04;100970.47;4989402;28;20057;-60
2021/11/19 02:26:45;;;;;;;1.03;0.67;;;;;;;14.19;43.95;100963.94;4996174;28;20129;-61
2021/11/19 02:29:14;;;;;;;2.70;1.30;;;;;;;14.21;43.96;100961.66;4987501;28;20054;-61
2021/11/19 02:31:50;;;;;;;1.30;0.80;;;;;;;14.07;44.10;100963.47;4991483;28;20151;-61
2021/11/19 02:34:18;;;;;;;0.50;0.50;;;;;;;14.14;44.27;100963.13;4989877;28;20126;-61
2021/11/19 02:37:05;;;;;;;2.70;1.83;;;;;;;14.23;43.92;100962.22;4991469;28;20046;-61
2021/11/19 02:39:40;;;;;;;1.17;0.87;;;;;;;14.24;43.95;100960.22;4989330;28;20105;-61
2021/11/19 02:42:25;;;;;;;1.47;0.87;;;;;;;14.14;44.18;100968.75;4987427;28;20109;-60
2021/11/19 02:44:55;;;;;;;0.83;0.70;;;;;;;14.17;44.15;100960.56;4983347;28;20128;-58
2021/11/19 02:47:24;;;;;;;1.83;1.15;;;;;;;14.15;43.99;100957.25;4978382;28;20046;-58
2021/11/19 02:49:51;;;;;;;0.47;0.47;;;;;;;14.19;44.09;100965.91;4980127;28;20379;-58
2021/11/19 02:52:25;;;;;;;2.30;1.00;;;;;;;14.14;44.11;100949.09;4991040;28;20073;-58
2021/11/19 02:54:52;;;;;;;3.17;0.70;;;;;;;14.19;44.14;100949.91;4992948;28;20046;-58
2021/11/19 02:57:20;;;;;;;1.03;0.70;;;;;;;14.23;44.04;100952.94;4991307;28;20085;-58
2021/11/19 02:59:48;;;;;;;1.20;0.93;;;;;;;14.20;44.10;100950.72;4994393;28;20157;-58
2021/11/19 03:02:19;;;;;;;2.30;1.30;;;;;;;14.23;44.09;100950.13;4994106;28;20085;-58
2021/11/19 03:04:50;;;;;;;0.30;0.30;;;;;;;14.13;44.21;100939.84;4991248;28;20082;-59
2021/11/19 03:07:18;;;;;;;1.30;0.90;;;;;;;14.21;44.10;100946.78;4992913;28;20074;-58
2021/11/19 03:09:52;;;;;;;2.13;1.10;;;;;;;14.26;43.94;100941.13;4991954;28;20137;-59
2021/11/19 03:12:22;;;;;;;5.73;1.07;;;;;;;14.18;43.91;100922.09;4991782;28;20130;-59
2021/11/19 03:14:53;;;;;;;4.00;0.98;;;;;;;14.23;44.15;100938.91;4994301;28;20140;-58
2021/11/19 03:17:23;;;;;;;1.20;0.70;;;;;;;14.25;43.88;100930.16;4993128;28;20515;-58
2021/11/19 03:19:50;;;;;;;0.53;0.50;;;;;;;14.26;44.02;100943.09;4985292;28;20057;-61
2021/11/19 03:22:20;;;;;;;3.83;1.30;;;;;;;14.25;43.98;100933.81;4990328;28;20442;-61
2021/11/19 03:24:48;;;;;;;1.25;0.95;;;;;;;14.21;44.13;100932.72;4992464;28;20082;-63
2021/11/19 03:27:17;;;;;;;1.73;1.10;;;;;;;14.23;44.24;100928.50;4992167;28;20065;-64
2021/11/19 03:29:46;;;;;;;2.10;1.10;;;;;;;14.26;43.90;100918.66;4991639;28;20148;-62
2021/11/19 03:32:16;;;;;;;1.37;1.27;;;;;;;14.12;44.07;100910.09;4993206;28;20096;-60
2021/11/19 03:34:43;;;;;;;;;;;;;;;14.11;44.26;100924.41;4990903;28;20543;-62
2021/11/19 03:37:11;;;;;;;0.47;0.40;;;;;;;14.13;44.24;100922.16;4992460;28;20020;-64
2021/11/19 03:39:38;;;;;;;2.03;0.60;;;;;;;14.18;44.11;100920.09;4991417;28;20085;-63
2021/11/19 03:42:05;;;;;;;1.47;0.93;;;;;;;13.93;44.41;100889.47;4974581;28;20159;-63
2021/11/19 03:44:39;;;;;;;2.57;1.27;;;;;;;13.82;44.30;100877.50;4991879;28;20197;-62
2021/11/19 03:47:13;;;;;;;0.73;0.70;;;;;;;14.03;44.51;100905.41;4991559;28;20129;-61
2021/11/19 03:49:43;;;;;;;0.70;0.47;;;;;;;14.06;44.36;100904.81;4998679;28;20100;-59
2021/11/19 03:52:15;;;;;;;2.15;0.80;;;;;;;13.92;44.73;100899.03;4986316;28;20074;-59
2021/11/19 03:54:44;;;;;;;1.80;1.00;;;;;;;14.02;44.34;100895.28;4985784;28;20172;-63
2021/11/19 03:57:13;;;;;;;3.88;1.55;;;;;;;14.15;44.14;100908.63;4990031;28;20149;-62
2021/11/19 03:59:41;;;;;;;3.20;1.53;;;;;;;13.92;44.30;100901.84;4981251;28;20137;-61
2021/11/19 04:02:09;;;;;;;2.63;1.40;;;;;;;13.88;44.62;100910.03;4989562;28;20131;-62
2021/11/19 04:04:38;;;;;;;4.13;1.70;;;;;;;13.81;44.65;100903.91;4991907;28;20064;-62
2021/11/19 04:07:07;;;;;;;2.55;1.50;;;;;;;13.78;44.75;100912.06;4991066;28;20071;-61
2021/11/19 04:09:35;;;;;;;4.65;1.90;;;;;;;13.78;44.72;100914.84;4988745;28;20058;-61
2021/11/19 04:12:04;;;;;;;2.87;2.20;;;;;;;13.67;44.74;100908.50;4986228;28;20054;-59
2021/11/19 04:14:31;;;;;;;4.47;1.60;;;;;;;13.62;44.91;100912.19;4992450;28;20498;-59
2021/11/19 04:16:59;;;;;;;2.13;1.30;;;;;;;13.50;45.09;100909.75;4991212;28;20137;-58
2021/11/19 04:19:28;;;;;;;2.70;1.30;;;;;;;13.48;45.31;100908.38;4990638;28;20140;-58
2021/11/19 04:22:03;;;;;;;2.40;1.13;;;;;;;13.34;45.36;100882.94;4984582;28;20109;-58
2021/11/19 04:24:36;;;;;;;1.63;1.10;;;;;;;13.27;45.02;100862.78;4990712;28;20207;-58
2021/11/19 04:27:05;;;;;;;2.97;1.70;;;;;;;13.49;45.03;100896.84;4989072;28;20129;-58
2021/11/19 04:29:32;;;;;;;1.75;1.15;;;;;;;13.54;45.09;100903.53;4991007;28;20224;-58
2021/11/19 04:31:59;;;;;;;3.77;1.70;;;;;;;13.39;45.02;100894.09;4991622;28;20050;-58
2021/11/19 04:34:27;;;;;;;2.80;1.53;;;;;;;13.35;44.95;100876.19;4989629;28;20054;-64
2021/11/19 04:36:54;;;;;;;1.80;1.30;;;;;;;13.47;45.03;100901.94;4991859;28;20100;-56
2021/11/19 04:39:21;;;;;;;4.50;1.70;;;;;;;13.33;45.37;100895.25;4990304;28;20478;-56
2021/11/19 04:41:49;;;;;;;3.17;1.60;;;;;;;13.36;45.33;100905.91;4992784;28;20050;-56
2021/11/19 04:44:16;;;;;;;3.23;2.07;;;;;;;13.36;45.50;100903.09;4987908;28;20137;-58
2021/11/19 04:46:44;;;;;;;4.20;1.50;;;;;;;13.32;45.47;100907.63;4989776;28;20153;-57
2021/11/19 04:49:12;;;;;;;2.90;1.47;;;;;;;13.31;45.32;100894.75;4991570;28;20506;-59
2021/11/19 04:51:41;;;;;;;4.00;1.40;;;;;;;13.31;45.34;100889.13;4986082;28;20498;-58
2021/11/19 04:54:10;;;;;;;3.63;1.37;;;;;;;13.35;45.26;100893.03;4971800;28;20074;-59
2021/11/19 04:56:39;;;;;;;1.92;1.15;;;;;;;13.14;45.22;100860.59;4978413;28;20073;-59
2021/11/19 04:59:06;;;;;;;3.50;1.83;;;;;;;13.31;45.35;100893.91;4991608;28;20073;-58
2021/11/19 05:01:43;;;;;;;3.37;1.27;;;;;;;13.24;45.48;100899.84;4989353;28;20078;-58
2021/11/19 05:04:10;;;;;;;3.20;1.40;;;;;;;13.26;45.32;100901.22;4988396;28;20054;-58
2021/11/19 05:06:38;;;;;;;3.43;1.20;;;;;;;13.22;45.46;100900.06;4989954;28;20065;-58
2021/11/19 05:09:07;;;;;;;3.70;1.53;;;;;;;13.21;45.50;100891.97;4990695;28;20462;-58
2021/11/19 05:11:47;;;;;;;2.63;1.83;;;;;;;13.11;45.56;100878.00;4987937;28;20141;-58
2021/11/19 05:14:15;;;;;;;4.63;1.58;;;;;;;13.22;45.51;100897.28;4991585;28;20132;-58
2021/11/19 05:16:42;;;;;;;3.23;1.40;;;;;;;13.15;45.61;100881.91;4988478;28;20133;-58
2021/11/19 05:19:10;;;;;;;3.53;1.33;;;;;;;13.19;45.85;100886.63;4990002;28;20494;-58
2021/11/19 05:21:38;;;;;;;2.43;1.30;;;;;;;13.11;45.88;100886.41;4989891;28;20133;-58
2021/11/19 05:24:08;;;;;;;3.13;1.70;;;;;;;13.19;45.91;100881.03;4989922;28;20486;-58
2021/11/19 05:26:36;;;;;;;2.20;1.30;;;;;;;13.20;45.64;100876.28;4989941;28;20138;-58
2021/11/19 05:29:05;;;;;;;2.47;1.23;;;;;;;13.25;45.51;100881.88;4991042;28;20133;-57
2021/11/19 05:31:33;;;;;;;3.47;1.50;;;;;;;13.21;45.33;100875.13;4990647;28;20129;-62
2021/11/19 05:34:00;;;;;;;2.33;1.30;;;;;;;13.23;45.59;100892.50;4990783;28;20050;-62
2021/11/19 05:36:27;;;;;;;3.23;1.73;;;;;;;13.07;45.48;100860.94;4988692;28;20078;-58
2021/11/19 05:38:53;;;;;;;2.20;1.20;;;;;;;13.28;45.41;100889.72;4989697;28;20136;-58
2021/11/19 05:41:23;;;;;;;2.10;1.13;;;;;;;13.30;45.33;100881.00;4990500;28;20100;-58
2021/11/19 05:43:51;;;;;;;1.90;1.03;;;;;;;13.24;45.38;100875.44;4988544;28;20145;-59
2021/11/19 05:46:21;;;;;;;2.90;1.70;;;;;;;13.15;45.75;100879.09;4987845;28;20295;-59
2021/11/19 05:48:50;;;;;;;2.78;1.30;;;;;;;13.15;45.79;100879.09;4972549;28;20137;-58
2021/11/19 05:51:18;;;;;;;4.20;1.50;;;;;;;13.15;45.71;100867.88;4991505;28;20125;-58
2021/11/19 05:53:46;;;;;;;3.20;1.70;;;;;;;13.13;45.86;100881.34;4988418;28;20434;-58
2021/11/19 05:56:14;;;;;;;3.47;1.60;;;;;;;13.05;46.13;100886.44;4990354;28;20082;-60
2021/11/19 05:58:40;;;;;;;3.87;1.57;;;;;;;12.84;46.04;100854.03;4990230;28;20455;-59
2021/11/19 06:01:13;;;;;;;2.93;1.10;;;;;;;13.04;46.07;100893.19;4990635;28;20146;-61
2021/11/19 06:03:41;;;;;;;2.07;1.20;;;;;;;13.02;45.90;100887.03;4981876;28;20166;-59
2021/11/19 06:06:09;;;;;;;3.30;1.50;;;;;;;13.11;45.89;100900.44;4990197;28;20046;-62
2021/11/19 06:08:41;;;;;;;3.13;1.50;;;;;;;13.05;46.00;100892.03;4987416;28;20074;-62
2021/11/19 06:11:13;;;;;;;2.53;1.03;;;;;;;12.93;46.09;100887.94;4966969;28;20129;-65
2021/11/19 06:13:47;;;;;;;2.37;1.20;;;;;;;13.00;46.17;100903.28;4971370;28;20130;-60
2021/11/19 06:16:19;;;;;;;2.70;1.50;;;;;;;13.08;45.88;100906.63;4986504;28;20134;-58
2021/11/19 06:19:01;;;;;;;2.47;1.20;;;;;;;13.04;45.76;100898.78;4988438;28;20569;-62
2021/11/19 06:21:38;;;;;;;1.60;1.13;;;;;;;12.96;46.11;100904.16;4989645;28;20451;-59
2021/11/19 06:24:17;;;;;;;1.47;1.13;;;;;;;12.89;46.56;100903.63;4990982;28;20061;-60
2021/11/19 06:26:45;;;;;;;3.57;1.30;;;;;;;12.81;46.68;100913.47;4981368;28;20053;-61
2021/11/19 06:29:13;;;;;;;2.07;1.10;;;;;;;12.74;46.76;100894.16;4993278;28;20093;-61
2021/11/19 06:31:45;;;;;;;4.00;1.70;;;;;;;12.76;47.14;100908.75;4991767;28;20554;-61
2021/11/19 06:34:13;;;;;;;4.53;2.13;;;;;;;12.82;47.16;100920.78;4992561;28;20141;-60
2021/11/19 06:36:44;;;;;;;1.40;0.90;;;;;;;12.77;47.25;100927.22;4978109;28;20042;-60
2021/11/19 06:39:31;;;;;;;4.05;1.50;;;;;;;12.76;47.24;100921.91;4989306;28;20047;-59
2021/11/19 06:41:58;;;;;;;2.40;1.20;;;;;;;12.77;47.21;100909.56;4994845;28;20600;-58
2021/11/19 06:44:27;;;;;;;4.23;1.40;;;;;;;12.88;47.23;100922.41;4994220;28;20038;-57
2021/11/19 06:46:54;;;;;;;3.10;1.27;;;;;;;12.90;47.05;100916.53;4993241;28;20457;-57
2021/11/19 06:49:20;;;;;;;2.67;1.60;;;;;;;12.88;47.14;100921.56;4993789;28;20317;-56
2021/11/19 06:51:47;;;;;;;4.73;1.90;;;;;;;12.85;47.33;100922.97;4984552;28;20137;-57
2021/11/19 06:54:14;;;;;;;2.93;1.47;;;;;;;12.88;47.24;100936.41;4992433;28;20070;-58
2021/11/19 06:56:42;;;;;;;2.53;1.27;;;;;;;12.87;47.05;100915.13;4995138;28;20050;-58
2021/11/19 06:59:09;;;;;;;2.20;1.07;;;;;;;12.99;46.75;100937.22;4994717;28;20129;-58
2021/11/19 07:01:36;;;;;;;2.00;1.60;;;;;;;12.93;46.94;100933.59;4991110;28;20081;-58
2021/11/19 07:04:05;;;;;;;1.90;1.27;;;;;;;13.01;46.70;100935.81;4991727;28;20088;-58
2021/11/19 07:06:32;;;;;;;2.90;1.43;;;;;;;13.04;46.68;100946.44;4994455;28;20137;-58
2021/11/19 07:09:00;;;;;;;2.83;1.07;;;;;;;12.93;47.04;100939.22;4991900;28;20053;-58
2021/11/19 07:11:28;;;;;;;2.13;1.30;;;;;;;12.99;46.72;100938.06;4993026;28;20445;-58
2021/11/19 07:13:56;;;;;;;1.43;1.10;;;;;;;12.90;47.20;100934.19;4992854;28;20129;-58
2021/11/19 07:16:26;;;;;;;2.33;0.90;;;;;;;12.80;47.25;100934.22;4992384;28;20194;-58
2021/11/19 07:18:54;;;;;;;;;;;;;;;12.85;47.05;100925.78;4992703;28;20126;-58
2021/11/19 07:21:23;;;;;;;0.60;0.40;;;;;;;12.74;47.55;100929.75;4993877;28;19922;-58
2021/11/19 07:23:51;;;;;;;2.08;1.10;;;;;;;12.72;47.48;100929.22;4989857;28;20112;-57
2021/11/19 07:26:19;;;;;;;3.00;1.67;;;;;;;12.57;47.95;100925.31;4992326;28;20125;-58
2021/11/19 07:28:46;;;;;;;3.00;0.87;;;;;;;12.53;48.45;100924.22;4992820;28;20130;-58
2021/11/19 07:31:15;;;;;;;2.00;1.07;;;;;;;12.55;48.31;100919.19;4988550;28;20490;-57
2021/11/19 07:33:44;;;;;;;3.07;1.03;;;;;;;12.48;48.30;100921.44;4993106;28;20098;-59
2021/11/19 07:36:13;;;;;;;0.43;0.43;;;;;;;12.43;48.60;100929.84;4992322;28;20053;-58
2021/11/19 07:38:41;;;;;;;0.45;0.45;;;;;;;12.41;49.03;100939.66;4992257;28;20077;-57
2021/11/19 07:41:10;;;;;;;0.60;0.60;;;;;;;12.36;48.99;100957.31;4991731;28;20125;-59
2021/11/19 07:43:40;;;;;;;2.80;1.20;;;;;;;12.37;49.11;100955.34;4989236;28;20089;-54
2021/11/19 07:46:08;;;;;;;2.38;1.60;;;;;;;12.29;49.28;100945.56;4989860;28;20181;-56
2021/11/19 07:48:38;;;;;;;12.93;1.33;;;;;;;12.61;48.47;100955.56;4971600;28;20046;-55
2021/11/19 07:51:09;;;;;;;2.75;1.85;;;;;;;12.62;48.27;100954.47;4993917;28;20084;-55
2021/11/19 07:53:37;;;;;;;2.50;0.90;;;;;;;12.63;48.69;100956.97;4992729;28;20046;-54
2021/11/19 07:56:06;;;;;;;1.43;0.87;;;;;;;12.84;48.03;100959.72;4994689;28;20164;-55
2021/11/19 07:58:34;;;;;;;6.80;0.90;;;;;;;12.98;48.09;100966.38;4993643;28;20046;-54
2021/11/19 08:01:01;;;;;;;1.60;1.07;;;;;;;13.07;47.68;100961.03;4993840;28;20081;-56
2021/11/19 08:03:28;;;;;;;3.63;1.60;;;;;;;13.22;47.48;100949.72;4994183;28;20076;-57
2021/11/19 08:05:58;;;;;;;5.23;1.40;;;;;;;13.48;46.97;100973.72;4994587;28;20137;-56
2021/11/19 08:08:28;;;;;;;3.50;1.70;;;;;;;13.62;46.78;100975.91;4992394;28;20165;-56
2021/11/19 08:10:57;;;;;;;2.97;1.43;;;;;;;13.80;46.69;100977.16;4993496;28;20046;-56
2021/11/19 08:13:24;;;;;;;1.23;0.77;;;;;;;13.86;46.48;100984.44;4994214;28;20553;-52
2021/11/19 08:15:52;;;;;;;2.83;1.13;;;;;;;13.73;46.36;100969.91;4992529;28;20133;-55
2021/11/19 08:18:29;;;;;;;2.00;1.13;;;;;;;13.95;46.13;100986.31;4992966;28;20118;-55
2021/11/19 08:21:01;;;;;;;2.33;1.03;;;;;;;14.18;45.98;100993.13;4995306;28;20129;-54
2021/11/19 08:23:34;;;;;;;3.97;1.57;;;;;;;14.44;45.49;100984.50;4993013;28;20057;-55
2021/11/19 08:26:06;;;;;;;3.33;1.80;;;;;;;14.65;45.56;100987.97;4993595;28;20133;-55
2021/11/19 08:28:34;;;;;;;3.47;2.13;;;;;;;15.26;44.95;100997.66;4993906;28;20133;-54
2021/11/19 08:31:03;;;;;;;3.23;1.97;;;;;;;15.35;44.55;100984.56;4993048;28;20556;-54
2021/11/19 08:33:30;;;;;;;2.95;1.85;;;;;;;15.45;44.09;100981.59;4993596;28;20046;-54
2021/11/19 08:35:58;;;;;;;6.03;2.20;;;;;;;15.47;43.77;100978.50;4993424;28;20058;-54
2021/11/19 08:38:26;;;;;;;4.03;1.70;;;;;;;15.61;43.61;100985.88;4989451;28;20078;-54
2021/11/19 08:40:54;;;;;;;3.10;2.03;;;;;;;15.90;43.33;100986.88;4993080;28;20077;-56
2021/11/19 08:43:25;;;;;;;4.10;1.77;;;;;;;15.98;42.98;100984.22;4993986;28;20401;-54
2021/11/19 08:45:53;;;;;;;1.77;1.52;;;;;;;16.24;42.49;101010.03;4992925;28;20077;-55
2021/11/19 08:48:25;;;;;;;4.60;2.20;;;;;;;16.39;42.15;100993.97;4981472;28;20134;-54
2021/11/19 08:50:53;;;;;;;5.20;2.58;;;;;;;16.49;41.43;100999.44;4974060;28;20047;-54
2021/11/19 08:53:20;;;;;;;2.78;1.73;;;;;;;16.74;41.39;100995.28;4985099;28;20129;-56
2021/11/19 08:55:51;;;;;;;3.70;1.90;;;;;;;17.17;41.24;101001.53;4993352;28;20069;-54
2021/11/19 08:58:28;;;;;;;4.28;2.20;;;;;;;17.28;40.40;100988.84;4993422;28;20450;-54
2021/11/19 09:00:57;;;;;;;5.10;2.17;;;;;;;17.26;40.06;100985.53;4992652;28;20137;-55
2021/11/19 09:03:26;;;;;;;4.57;2.00;;;;;;;17.74;40.00;100979.38;4993128;28;20108;-56
2021/11/19 09:05:54;;;;;;;3.88;2.40;;;;;;;18.33;39.55;100970.03;4992985;28;20262;-56
2021/11/19 09:08:24;;;;;;;3.17;2.10;;;;;;;19.25;38.62;100981.63;4989050;28;20538;-56
2021/11/19 09:10:54;;;;;;;4.78;2.58;;;;;;;19.44;37.44;100996.34;4993242;28;20081;-56
2021/11/19 09:13:21;;;;;;;2.20;1.70;;;;;;;19.07;37.23;100960.94;4993428;28;20454;-56
2021/11/19 09:15:50;;;;;;;4.80;2.30;;;;;;;19.44;36.62;100987.84;4991512;28;20074;-57
2021/11/19 09:18:29;;;;;;;3.27;1.93;;;;;;;19.85;36.50;100992.25;4992532;28;20042;-56
2021/11/19 09:21:16;;;;;;;5.78;2.28;;;;;;;19.81;36.10;100965.75;4988016;28;20339;-56
2021/11/19 09:24:08;;;;;;;2.35;1.60;;;;;;;20.27;35.26;100967.91;4972104;28;20243;-56
2021/11/19 09:26:40;;;;;;;3.28;1.98;;;;;;;20.30;34.83;100966.38;4983094;28;20093;-57
2021/11/19 09:29:13;;;;;;;6.43;2.70;;;;;;;20.60;34.91;100987.22;4981818;28;20074;-54
2021/11/19 09:31:42;;;;;;;2.80;1.98;;;;;;;20.77;34.18;100981.47;4992476;28;20133;-56
2021/11/19 09:34:09;;;;;;;3.85;2.10;;;;;;;20.54;34.32;100978.03;4989383;28;20129;-56
2021/11/19 09:36:38;;;;;;;4.45;2.15;;;;;;;20.90;34.29;100975.94;4992232;28;20133;-54
2021/11/19 09:39:08;;;;;;;4.18;2.75;;;;;;;21.05;33.90;100964.81;4989067;28;20073;-55
2021/11/19 09:41:47;;;;;;;4.22;2.30;;;;;;;21.41;33.70;100972.03;4991836;28;20081;-56
2021/11/19 09:44:14;;;;;;;3.53;2.22;;;;;;;21.83;33.95;100976.91;4989624;28;20056;-56
2021/11/19 09:47:21;;;;;;;3.00;2.08;;;;;;;21.58;33.24;100953.19;4989527;28;20109;-55
2021/11/19 09:50:45;;;;;;;3.97;2.75;;;;;;;21.34;33.49;100954.69;4973227;28;20081;-54
2021/11/19 09:53:50;;;;;;;5.47;2.58;;;;;;;20.76;33.61;100959.13;4912390;29;20048;-56
2021/11/19 09:56:49;;;;;;;4.38;2.80;;;;;;;21.38;33.98;100955.66;4912882;29;20083;-55
2021/11/19 09:59:24;;;;;;;5.10;2.38;;;;;;;21.90;32.40;100943.06;4976525;28;20077;-56
2021/11/19 10:02:06;;;;;;;6.03;2.67;;;;;;;21.57;32.49;100951.50;4992423;28;20142;-56
2021/11/19 10:05:10;;;;;;;5.57;2.90;;;;;;;21.63;33.27;100944.44;4996155;28;20053;-56
2021/11/19 10:07:48;;;;;;;8.02;2.92;;;;;;;22.37;32.54;100946.47;4995886;28;20133;-55
2021/11/19 10:10:47;;;;;;;4.90;3.05;;;;;;;22.12;32.10;100944.69;4995693;28;20129;-55
2021/11/19 10:13:32;;;;;;;5.88;3.22;;;;;;;22.25;32.30;100949.28;4989966;28;20149;-57
2021/11/19 10:16:03;;;;;;;4.30;2.40;;;;;;;22.37;31.64;100945.66;4994974;28;20050;-58
2021/11/19 10:18:33;;;;;;;4.53;2.97;;;;;;;22.22;31.31;100944.28;4994810;28;20520;-57
2021/11/19 10:21:09;;;;;;;5.32;3.13;;;;;;;22.48;32.03;100942.00;4992111;28;20137;-56
2021/11/19 10:24:06;;;;;;;5.15;2.90;;;;;;;23.35;31.37;100946.63;4995128;28;20054;-56
2021/11/19 10:26:36;;;;;;;5.10;3.15;;;;;;;23.72;30.32;100943.69;4995694;28;20129;-57
2021/11/19 10:29:08;;;;;;;4.32;2.85;;;;;;;23.87;29.65;100939.28;4995938;28;20117;-56
2021/11/19 10:31:35;;;;;;;5.03;3.15;;;;;;;24.08;30.06;100950.50;4995237;28;20050;-56
2021/11/19 10:34:08;;;;;;;5.70;3.20;;;;;;;24.28;29.11;100935.19;4996347;28;20125;-56
2021/11/19 10:36:41;;;;;;;4.40;2.60;;;;;;;23.78;28.93;100942.25;4995907;28;20050;-55
2021/11/19 10:39:37;;;;;;;4.82;3.78;;;;;;;23.29;30.29;100930.94;4991223;28;20216;-55
2021/11/19 10:42:27;;;;;;;4.95;3.40;;;;;;;23.64;29.47;100919.00;4972360;28;20138;-54
2021/11/19 10:45:15;;;;;;;8.23;3.60;;;;;;;23.41;29.38;100939.47;4984385;28;20137;-56
2021/11/19 10:48:06;;;;;;;4.35;3.10;;;;;;;22.55;29.68;100927.19;4993586;28;20165;-58
2021/11/19 10:50:52;;;;;;;2.42;2.22;;;;;;;21.87;30.22;100936.06;4993245;28;20046;-52
2021/11/19 10:53:37;;;;;;;5.70;3.50;;;;;;;21.51;30.53;100934.69;4990183;28;20536;-56
2021/11/19 10:56:15;;;;;;;12.60;6.20;;;;;;;21.49;31.01;100921.97;4995196;28;20081;-56
2021/11/19 10:58:59;;;;;;;11.15;5.32;;;;;;;21.40;31.04;100926.88;4993961;28;20054;-56
2021/11/19 11:01:46;;;;;;;8.43;4.47;;;;;;;21.21;31.49;100915.97;4994479;28;20070;-54
2021/11/19 11:04:51;;;;;;;8.18;3.80;;;;;;;21.28;31.42;100921.94;4994563;28;20383;-55
2021/11/19 11:07:25;;;;;;;7.65;4.25;;;;;;;21.91;31.30;100930.50;4981939;28;20463;-56
2021/11/19 11:10:17;;;;;;;3.35;2.75;;;;;;;21.51;30.91;100914.78;4989112;28;20589;-54
2021/11/19 11:12:51;;;;;;;5.80;4.18;;;;;;;21.72;30.78;100862.78;4986228;28;20061;-54
2021/11/19 11:15:51;;;;;;;6.55;4.32;;;;;;;22.20;30.19;100906.84;4993082;28;20042;-52
2021/11/19 11:18:22;;;;;;;4.85;3.22;;;;;;;21.91;30.73;100887.84;4993796;28;20437;-55
2021/11/19 11:20:52;;;;;;;28.63;13.15;;;;;;;22.08;31.19;100898.22;4993824;28;20452;-54
2021/11/19 11:23:28;;;;;;;7.00;4.85;;;;;;;22.07;30.89;100897.38;4993779;28;20054;-55
2021/11/19 11:26:11;;;;;;;5.95;4.03;;;;;;;22.23;30.35;100903.28;4993640;28;20130;-54
2021/11/19 11:29:17;;;;;;;3.42;2.90;;;;;;;21.69;31.30;100891.91;4994575;28;20414;-53
2021/11/19 11:32:01;;;;;;;2.75;2.30;;;;;;;21.52;31.49;100893.72;4962590;28;20051;-52
2021/11/19 11:34:44;;;;;;;5.43;2.92;;;;;;;21.47;31.73;100890.22;4975203;28;20082;-53
2021/11/19 11:37:17;;;;;;;3.30;2.60;;;;;;;21.53;31.60;100881.16;4975950;28;20243;-54
2021/11/19 11:40:05;;;;;;;2.85;2.30;;;;;;;21.20;31.80;100831.94;4975551;28;20062;-54
2021/11/19 11:42:37;;;;;;;4.75;3.33;;;;;;;21.97;31.59;100875.91;4975004;28;20392;-54
2021/11/19 11:45:19;;;;;;;4.95;3.38;;;;;;;22.27;30.88;100864.41;4990874;28;20596;-55
2021/11/19 11:47:52;;;;;;;10.85;7.03;;;;;;;22.64;30.85;100858.78;4998473;28;20435;-55
2021/11/19 11:50:45;;;;;;;8.23;5.90;;;;;;;23.47;30.31;100850.88;4994196;28;20142;-54
2021/11/19 11:53:24;;;;;;;3.78;2.72;;;;;;;23.64;29.02;100861.97;4992767;28;20130;-54